Terminal Aerodrome Forecast
Issued by NWS Paducah, KY

Home | Current Version | Previous Version | Text Only | Print | Product List | Glossary On
Versions: 1 2 3 4 5 6 7 8 9 10 11 12 13 14 15 16 17 18
000
FTUS43 KPAH 240000 AAA
TAFEVV
TAF AMD
KEVV 240033Z 2401/2424 35010KT P6SM VCSH SCT009 BKN025
      TEMPO 2401/2402 5SM -SHRA BR BKN009
     FM240200 35005KT P6SM SCT040
     FM241500 03008KT P6SM SCT040=

USA.gov is the U.S. government's official web portal to all federal, state and local government web resources and services.